Time;durP1;ratioP1;P1;durP2;ratioP2;P2;SDS_P1;SDS_P2;PMS_P1;PMS_P2;Temp;Humidity;BMP_temperature;BMP_pressure;BME280_temperature;BME280_humidity;BME280_pressure;Samples;Min_cycle;Max_cycle;Signal;HPM_P1;HPM_P2
2022/07/06 03:44:05;;;;;;;7.72;1.35;;;12.80;98.30;;;;;;6090447;22;21222;31
2022/07/06 14:34:07;;;;;;;5.20;1.40;;;19.60;89.30;;;;;;6030305;23;20276;31
2022/07/06 14:36:34;;;;;;;10.43;2.00;;;19.50;90.40;;;;;;6097010;23;20029;-74
2022/07/06 14:39:00;;;;;;;6.18;2.08;;;19.50;90.00;;;;;;6123437;23;20017;-72
2022/07/06 14:41:25;;;;;;;7.53;1.63;;;19.40;90.10;;;;;;6097222;23;20065;-72
2022/07/06 14:43:51;;;;;;;11.18;1.60;;;19.40;89.30;;;;;;6121442;23;20014;-74
2022/07/06 14:46:17;;;;;;;5.30;1.85;;;19.30;89.20;;;;;;6124171;23;20017;-72
2022/07/06 14:48:45;;;;;;;6.75;1.90;;;19.30;89.70;;;;;;6127656;23;20109;-73
2022/07/06 14:51:23;;;;;;;8.75;1.70;;;19.20;90.00;;;;;;6128226;23;20017;-73
2022/07/06 14:53:52;;;;;;;9.98;1.95;;;19.20;90.60;;;;;;6151897;23;20116;-76
2022/07/06 14:56:18;;;;;;;8.48;1.90;;;19.10;90.60;;;;;;6131908;23;20380;-73
2022/07/06 14:58:43;;;;;;;7.95;2.70;;;19.10;90.70;;;;;;6132822;23;20021;-72
2022/07/06 15:02:10;;;;;;;;;;;;;;;;;;;;;
2022/07/06 15:05:20;;;;;;;8.55;2.15;;;19.00;91.40;;;;;;6065477;23;20086;-78
2022/07/06 15:08:23;;;;;;;8.77;2.05;;;19.00;91.50;;;;;;6041685;23;20018;-80
2022/07/06 15:10:59;;;;;;;7.45;2.00;;;18.90;92.10;;;;;;6041542;23;20563;-79
2022/07/06 15:13:34;;;;;;;9.60;1.60;;;18.80;91.90;;;;;;6113933;23;20013;-74
2022/07/06 15:20:13;;;;;;;8.77;2.42;;;18.70;93.80;;;;;;6137969;23;20048;-80
2022/07/06 15:22:39;;;;;;;10.13;2.15;;;18.60;94.60;;;;;;6134748;23;20068;-74
2022/07/06 15:25:31;;;;;;;5.80;2.17;;;18.50;94.40;;;;;;6157438;23;20013;-79
2022/07/06 15:27:56;;;;;;;5.20;2.30;;;18.40;96.10;;;;;;6140970;23;20017;-75
2022/07/06 15:34:14;;;;;;;7.63;2.53;;;18.00;98.50;;;;;;6138551;23;20028;-76
2022/07/06 16:29:25;;;;;;;;;;;;;;;;;;;;;
2022/07/06 16:32:46;;;;;;;8.88;5.00;;;17.70;99.90;;;;;;6199750;22;20051;-78
2022/07/06 16:40:00;;;;;;;;;;;;;;;;;;;;;
2022/07/06 16:43:09;;;;;;;9.82;5.88;;;17.60;99.90;;;;;;6186391;22;20026;-75
2022/07/06 16:46:39;;;;;;;11.60;5.22;;;17.60;99.90;;;;;;6222566;23;20016;-77
2022/07/06 16:49:16;;;;;;;10.50;5.72;;;17.60;99.90;;;;;;6186972;23;20272;-75
2022/07/06 16:51:42;;;;;;;13.13;6.20;;;17.50;99.90;;;;;;6224462;23;20008;-79
2022/07/06 16:54:08;;;;;;;8.80;5.72;;;17.50;99.90;;;;;;6237640;23;20430;-80
2022/07/06 16:56:35;;;;;;;13.05;5.97;;;17.60;99.90;;;;;;6226556;23;20446;-75
2022/07/06 16:59:04;;;;;;;9.52;5.43;;;17.60;99.90;;;;;;6225276;22;20027;-72
2022/07/06 17:01:50;;;;;;;10.48;5.57;;;17.70;99.90;;;;;;6225403;22;20018;-71
2022/07/06 17:04:22;;;;;;;14.65;6.43;;;17.50;99.90;;;;;;6250518;22;20019;-72
2022/07/06 17:07:17;;;;;;;7.68;5.28;;;17.50;99.90;;;;;;6225288;22;20023;-71
2022/07/06 17:10:36;;;;;;;11.55;5.65;;;17.50;99.90;;;;;;6255708;22;20019;-72
2022/07/06 17:28:00;;;;;;;7.53;4.90;;;17.40;99.90;;;;;;6135323;23;20053;-72
2022/07/06 17:31:29;;;;;;;8.82;4.32;;;17.30;99.90;;;;;;6099954;23;20049;-73
2022/07/06 17:33:57;;;;;;;8.50;4.07;;;17.40;99.90;;;;;;6100146;23;20018;-74
2022/07/06 17:37:05;;;;;;;8.50;3.95;;;17.30;99.90;;;;;;6075042;23;20013;-72
2022/07/06 17:47:46;;;;;;;8.90;3.83;;;17.20;99.90;;;;;;6037728;23;20031;-72
2022/07/06 17:51:09;;;;;;;;;;;;;;;;;;;;;
2022/07/06 18:01:30;;;;;;;10.30;3.78;;;17.20;99.90;;;;;;5932356;23;20077;-72
2022/07/06 18:03:55;;;;;;;9.43;3.95;;;17.10;99.90;;;;;;5990096;23;20391;-76
2022/07/06 18:06:24;;;;;;;9.57;4.20;;;17.10;99.90;;;;;;6129140;23;20112;-80
2022/07/06 18:08:50;;;;;;;11.82;4.95;;;17.10;99.90;;;;;;6175724;23;20018;-75
2022/07/06 18:21:30;;;;;;;11.40;6.22;;;17.10;99.90;;;;;;6250716;22;20030;-79
2022/07/06 18:24:03;;;;;;;14.85;6.85;;;17.10;99.90;;;;;;6230768;22;20311;-78
2022/07/06 18:26:48;;;;;;;16.88;7.57;;;17.00;99.90;;;;;;6256581;22;20011;-82
2022/07/06 18:29:27;;;;;;;20.58;7.82;;;17.10;99.90;;;;;;6206032;22;20334;-80
2022/07/06 18:31:59;;;;;;;16.02;6.75;;;17.10;99.90;;;;;;6256848;22;20466;-80
2022/07/06 18:34:31;;;;;;;15.80;6.75;;;17.10;99.90;;;;;;6255433;22;20015;-79
2022/07/06 18:40:45;;;;;;;13.50;6.22;;;17.00;99.90;;;;;;6308345;22;20358;-82
2022/07/06 18:46:41;;;;;;;14.95;6.57;;;17.00;99.90;;;;;;6304065;22;20022;-80
2022/07/06 18:49:10;;;;;;;15.60;6.53;;;17.00;99.90;;;;;;6256366;22;20065;-79
2022/07/06 18:55:26;;;;;;;10.35;6.00;;;17.10;99.90;;;;;;6213179;23;20028;-81
2022/07/06 18:58:26;;;;;;;15.25;5.72;;;17.00;99.90;;;;;;6146889;22;20020;-81
2022/07/06 19:01:49;;;;;;;;;;;;;;;;;;;;;
2022/07/06 19:05:17;;;;;;;18.58;6.80;;;17.00;99.90;;;;;;6122622;23;20018;-83
2022/07/06 19:07:51;;;;;;;13.52;6.85;;;16.90;99.90;;;;;;6099549;23;20492;-76
2022/07/06 19:10:22;;;;;;;12.00;6.88;;;17.00;99.90;;;;;;6189092;23;20012;-78
2022/07/06 19:13:17;;;;;;;20.52;7.68;;;17.00;99.90;;;;;;6163096;23;20009;-83
2022/07/06 19:15:43;;;;;;;16.27;6.80;;;16.90;99.90;;;;;;6098969;23;20010;-76
2022/07/06 19:18:49;;;;;;;15.77;6.75;;;17.00;99.90;;;;;;6157174;23;20467;-83
2022/07/06 19:37:46;;;;;;;9.82;5.22;;;16.90;99.90;;;;;;6139344;23;20023;-80
2022/07/06 19:45:19;;;;;;;;;;;;;;;;;;;;;
2022/07/06 19:47:25;;;;;;;15.60;5.63;;;16.90;99.90;;;;;;6140717;23;20077;-75
2022/07/06 19:49:50;;;;;;;15.20;6.22;;;16.90;99.90;;;;;;6202550;23;20020;-74
2022/07/06 19:52:35;;;;;;;14.60;5.88;;;16.90;99.90;;;;;;6171392;23;20151;-83
2022/07/06 19:58:50;;;;;;;13.65;6.43;;;16.90;99.90;;;;;;6187717;23;20032;-78
2022/07/06 20:01:19;;;;;;;14.80;6.35;;;16.90;99.90;;;;;;6177177;23;20348;-79
2022/07/06 20:04:06;;;;;;;14.50;7.25;;;16.90;99.90;;;;;;6162593;23;20040;-89
2022/07/06 20:06:45;;;;;;;13.48;6.38;;;16.90;99.90;;;;;;6162282;23;20023;-80
2022/07/06 20:09:21;;;;;;;14.55;6.07;;;16.90;99.90;;;;;;6213138;23;20023;-77
2022/07/06 20:16:15;;;;;;;13.73;5.63;;;16.90;99.90;;;;;;6137500;23;20355;-81
2022/07/06 20:22:34;;;;;;;16.65;6.40;;;16.90;99.90;;;;;;6094688;23;20019;-80
2022/07/06 20:25:07;;;;;;;14.55;6.78;;;16.90;99.90;;;;;;6082560;23;20017;-80
2022/07/06 20:27:34;;;;;;;13.02;5.93;;;16.90;99.90;;;;;;6157714;23;20027;-76
2022/07/06 20:30:00;;;;;;;14.15;6.50;;;16.90;99.90;;;;;;6139039;22;20444;-76
2022/07/06 20:32:32;;;;;;;18.05;5.90;;;16.90;99.90;;;;;;6226122;22;20104;-78
2022/07/06 20:35:05;;;;;;;10.77;5.80;;;16.90;99.90;;;;;;6226459;22;20081;-79
2022/07/06 20:37:46;;;;;;;11.95;6.30;;;16.70;99.90;;;;;;6226687;22;20015;-81
2022/07/06 20:40:12;;;;;;;15.13;6.68;;;16.90;99.90;;;;;;6251111;22;20067;-84
2022/07/06 20:42:57;;;;;;;15.38;6.85;;;16.90;99.90;;;;;;6226547;22;20073;-79
2022/07/06 20:49:10;;;;;;;13.35;7.35;;;16.90;99.90;;;;;;6125080;23;20369;-76
2022/07/06 20:51:46;;;;;;;14.27;6.38;;;16.90;99.90;;;;;;6077016;23;20460;-82
2022/07/06 20:54:14;;;;;;;17.97;6.57;;;17.00;99.90;;;;;;6226024;22;20043;-79
2022/07/06 20:57:06;;;;;;;15.07;6.20;;;17.00;99.90;;;;;;6226181;22;20015;-80
2022/07/06 20:59:33;;;;;;;16.20;6.50;;;17.00;99.90;;;;;;6251247;22;20430;-78
2022/07/06 21:02:03;;;;;;;17.20;6.95;;;17.00;99.90;;;;;;6225732;22;20008;-78
2022/07/06 21:04:31;;;;;;;12.88;6.00;;;17.00;99.90;;;;;;6225844;22;20011;-78
2022/07/06 21:06:57;;;;;;;16.35;5.65;;;17.00;99.90;;;;;;6226000;22;20012;-79
2022/07/06 21:09:23;;;;;;;14.10;6.57;;;17.00;99.90;;;;;;6225904;22;20464;-81
2022/07/06 21:11:49;;;;;;;16.17;5.85;;;17.00;99.90;;;;;;6225920;22;20011;-76
2022/07/06 21:14:15;;;;;;;13.40;5.90;;;17.00;99.90;;;;;;6250904;22;20085;-76
2022/07/06 21:16:44;;;;;;;12.82;6.15;;;17.10;99.90;;;;;;6225435;22;20095;-79
2022/07/06 21:19:09;;;;;;;13.02;5.55;;;17.00;99.90;;;;;;6245890;22;20016;-80
2022/07/06 21:22:01;;;;;;;12.18;4.80;;;17.10;99.90;;;;;;6249761;22;20031;-82
2022/07/06 21:24:27;;;;;;;10.98;5.00;;;17.10;99.90;;;;;;6276713;22;20011;-77
2022/07/06 21:26:53;;;;;;;9.60;5.00;;;17.10;99.90;;;;;;6251812;22;20020;-82
2022/07/06 21:29:21;;;;;;;11.55;4.53;;;17.10;99.90;;;;;;6277645;22;20015;-81
2022/07/06 21:31:50;;;;;;;11.45;4.40;;;17.10;99.90;;;;;;6251110;22;20011;-79
2022/07/06 21:34:16;;;;;;;12.35;4.55;;;17.10;99.90;;;;;;6250899;22;20094;-77
2022/07/06 21:36:44;;;;;;;9.40;4.43;;;17.10;99.90;;;;;;6275932;22;20054;-78
2022/07/06 21:39:10;;;;;;;8.80;4.43;;;17.10;99.90;;;;;;6250494;22;20143;-77
2022/07/06 21:41:41;;;;;;;9.13;4.00;;;17.10;99.90;;;;;;6250164;22;20438;-79
2022/07/06 21:44:19;;;;;;;11.65;4.28;;;17.10;99.90;;;;;;6250553;22;20042;-82
2022/07/06 21:46:45;;;;;;;8.93;3.75;;;17.10;99.90;;;;;;6276237;22;20012;-75
2022/07/06 21:50:04;;;;;;;;;;;;;;;;;;;;;
2022/07/06 21:52:49;;;;;;;13.25;4.10;;;17.10;99.90;;;;;;6277328;22;20018;-78
2022/07/06 21:55:15;;;;;;;11.93;3.40;;;17.10;99.90;;;;;;6250289;22;20051;-80
2022/07/06 21:57:41;;;;;;;8.82;3.30;;;17.10;99.90;;;;;;6250639;22;20450;-81
2022/07/06 22:00:22;;;;;;;7.93;2.97;;;17.10;99.90;;;;;;6250628;22;20042;-83
2022/07/06 22:02:48;;;;;;;12.18;3.30;;;17.10;99.90;;;;;;6250323;22;20042;-81
2022/07/06 22:05:15;;;;;;;6.95;3.22;;;17.10;99.90;;;;;;6250544;22;20018;-79
2022/07/06 22:08:16;;;;;;;7.13;2.85;;;17.10;99.90;;;;;;6250380;22;20015;-84
2022/07/06 22:10:42;;;;;;;8.13;2.97;;;17.10;99.90;;;;;;6212665;22;20016;-81
2022/07/06 22:14:07;;;;;;;;;;;;;;;;;;;;;
2022/07/06 22:16:44;;;;;;;9.90;3.50;;;17.10;99.90;;;;;;6104456;23;20110;-83
2022/07/06 22:34:14;;;;;;;15.15;4.00;;;17.20;99.90;;;;;;6126777;23;20084;-75
2022/07/06 22:41:03;;;;;;;9.52;2.85;;;17.20;99.90;;;;;;6013352;23;20055;-79
2022/07/06 22:43:47;;;;;;;7.03;2.30;;;17.30;99.90;;;;;;6013583;23;20017;-76
2022/07/06 22:46:42;;;;;;;13.02;3.13;;;17.20;99.90;;;;;;6008227;23;20068;-77
2022/07/06 22:49:08;;;;;;;7.57;2.00;;;17.30;99.90;;;;;;5978241;23;20023;-75
2022/07/06 22:51:34;;;;;;;10.45;2.50;;;17.20;99.90;;;;;;6016557;23;20354;-74
2022/07/06 22:54:00;;;;;;;12.45;3.15;;;17.20;99.90;;;;;;6123864;23;20017;-74
2022/07/06 22:56:26;;;;;;;6.32;2.42;;;17.20;99.90;;;;;;6138966;23;20017;-73
2022/07/06 22:58:52;;;;;;;13.20;2.10;;;17.20;99.90;;;;;;6188364;23;20016;-75
2022/07/06 23:01:18;;;;;;;8.57;2.30;;;17.20;99.90;;;;;;6188450;23;20362;-75
2022/07/06 23:03:49;;;;;;;;;;;17.20;99.90;;;;;;6188816;23;20012;-74
2022/07/06 23:06:23;;;;;;;8.63;2.58;;;17.20;99.90;;;;;;6163449;23;19912;-73
2022/07/06 23:08:50;;;;;;;5.90;2.15;;;17.10;99.90;;;;;;6188180;23;20506;-76
2022/07/06 23:11:17;;;;;;;9.25;2.75;;;17.10;99.90;;;;;;6215159;23;20016;-73
2022/07/06 23:13:44;;;;;;;8.68;2.40;;;17.10;99.90;;;;;;6195833;23;20016;-74
2022/07/06 23:16:11;;;;;;;13.48;2.28;;;17.20;99.90;;;;;;6209165;23;20084;-74
2022/07/06 23:18:37;;;;;;;7.80;2.35;;;17.20;99.90;;;;;;6193066;23;20012;-74
2022/07/06 23:21:04;;;;;;;6.78;2.40;;;17.20;99.90;;;;;;6188154;23;20016;-74
2022/07/06 23:23:31;;;;;;;8.38;2.30;;;17.20;99.90;;;;;;6224555;22;20012;-76
2022/07/06 23:25:57;;;;;;;9.75;2.80;;;17.20;99.90;;;;;;6275301;22;20016;-74
2022/07/06 23:28:23;;;;;;;14.38;3.50;;;17.10;99.90;;;;;;6279819;22;20065;-77
2022/07/06 23:30:49;;;;;;;9.93;2.90;;;17.20;99.90;;;;;;6280637;22;20015;-75
2022/07/06 23:33:15;;;;;;;;;;;17.20;99.90;;;;;;6281457;22;20089;-74
2022/07/06 23:35:41;;;;;;;19.20;2.90;;;17.20;99.90;;;;;;6280530;22;20224;-75
2022/07/06 23:38:07;;;;;;;;;;;17.20;99.90;;;;;;6255194;22;20472;-75
2022/07/06 23:40:33;;;;;;;11.57;2.47;;;17.10;99.90;;;;;;6229584;22;19915;-75
2022/07/06 23:42:59;;;;;;;11.77;2.30;;;17.10;99.90;;;;;;6254736;22;20025;-74
2022/07/06 23:45:25;;;;;;;15.93;3.20;;;17.10;99.90;;;;;;6280504;22;20082;-75
2022/07/06 23:47:51;;;;;;;13.68;3.38;;;17.10;99.90;;;;;;6254892;22;20076;-74
2022/07/06 23:50:17;;;;;;;12.35;3.22;;;17.10;99.90;;;;;;6280091;22;20011;-74
2022/07/06 23:52:44;;;;;;;12.88;2.83;;;17.10;99.90;;;;;;6254950;22;20011;-74
2022/07/06 23:55:12;;;;;;;20.40;2.22;;;17.00;99.90;;;;;;6280415;22;20030;-75
2022/07/06 23:57:38;;;;;;;11.95;2.83;;;16.90;99.90;;;;;;6229725;22;20011;-74
